createdAt,value
2022-08-31T00:00:15.097Z,46.75
2022-08-31T00:03:00.737Z,47.27
2022-08-31T00:05:28.513Z,47.56
2022-08-31T00:07:55.910Z,47.85
2022-08-31T00:10:32.304Z,47.57
2022-08-31T00:13:01.055Z,47.90
2022-08-31T00:15:30.419Z,47.64
2022-08-31T00:17:58.876Z,47.84
2022-08-31T00:20:33.333Z,47.51
2022-08-31T00:23:11.068Z,47.75
2022-08-31T00:25:40.556Z,47.55
2022-08-31T00:28:08.584Z,47.62
2022-08-31T00:30:36.255Z,48.32
2022-08-31T00:33:03.935Z,48.24
2022-08-31T00:35:33.117Z,47.44
2022-08-31T00:38:00.879Z,47.87
2022-08-31T00:40:28.631Z,47.58
2022-08-31T00:42:56.797Z,47.63
2022-08-31T00:45:24.261Z,47.87
2022-08-31T00:47:52.378Z,48.01
2022-08-31T00:50:21.438Z,47.46
2022-08-31T00:52:56.556Z,47.84
2022-08-31T00:55:33.997Z,47.56
2022-08-31T00:58:11.887Z,47.74
2022-08-31T01:00:40.573Z,48.22
2022-08-31T01:03:08.984Z,48.25
2022-08-31T01:05:37.877Z,47.73
2022-08-31T01:08:06.115Z,47.29
2022-08-31T01:10:40.556Z,47.11
2022-08-31T01:13:09.195Z,46.81
2022-08-31T01:15:38.035Z,47.13
2022-08-31T01:18:06.826Z,47.06
2022-08-31T01:20:48.692Z,47.29
2022-08-31T01:23:39.195Z,47.72
2022-08-31T01:26:09.135Z,47.68
2022-08-31T01:28:36.676Z,48.35
2022-08-31T01:31:41.562Z,48.45
2022-08-31T01:34:08.900Z,48.26
2022-08-31T01:36:38.735Z,48.29
2022-08-31T01:39:08.400Z,48.35
2022-08-31T01:41:36.455Z,48.52
2022-08-31T01:44:03.615Z,48.72
2022-08-31T01:46:30.739Z,47.69
2022-08-31T01:49:00.475Z,48.16
2022-08-31T01:51:28.045Z,47.96
2022-08-31T01:53:56.075Z,47.72
2022-08-31T01:56:26.658Z,47.72
2022-08-31T01:58:55.376Z,48.28
2022-08-31T02:01:37.420Z,47.99
2022-08-31T02:04:07.216Z,48.04
2022-08-31T02:06:34.927Z,48.11
2022-08-31T02:09:05.035Z,47.61
2022-08-31T02:11:33.556Z,47.84
2022-08-31T02:14:00.784Z,48.23
2022-08-31T02:16:28.012Z,48.04
2022-08-31T02:18:55.375Z,48.70
2022-08-31T02:21:22.855Z,48.82
2022-08-31T02:23:50.883Z,48.58
2022-08-31T02:26:18.275Z,48.52
2022-08-31T02:28:46.355Z,48.42
2022-08-31T02:31:13.500Z,48.48
2022-08-31T02:33:48.975Z,48.66
2022-08-31T02:36:16.135Z,48.73
2022-08-31T02:38:44.283Z,48.45
2022-08-31T02:41:11.355Z,48.65
2022-08-31T02:43:41.016Z,48.93
2022-08-31T02:46:08.260Z,48.74
2022-08-31T02:48:41.817Z,49.18
2022-08-31T02:51:16.795Z,49.88
2022-08-31T02:53:47.095Z,50.08
2022-08-31T02:56:14.476Z,50.22
2022-08-31T02:58:42.217Z,50.31
2022-08-31T03:01:10.138Z,50.97
2022-08-31T03:03:38.996Z,50.95
2022-08-31T03:06:06.256Z,50.82
2022-08-31T03:08:33.595Z,50.86
2022-08-31T03:11:01.356Z,51.03
2022-08-31T03:13:30.058Z,51.75
2022-08-31T03:15:58.202Z,52.11
2022-08-31T03:18:25.276Z,52.32
2022-08-31T03:20:52.520Z,52.61
2022-08-31T03:23:19.739Z,52.62
2022-08-31T03:25:47.835Z,52.31
2022-08-31T03:28:15.015Z,52.84
2022-08-31T03:30:51.377Z,52.46
2022-08-31T03:33:18.948Z,52.76
2022-08-31T03:35:46.335Z,52.87
2022-08-31T03:38:16.219Z,53.06
2022-08-31T03:40:45.007Z,53.01
2022-08-31T03:43:13.035Z,53.04
2022-08-31T03:45:43.056Z,53.20
2022-08-31T03:48:13.107Z,53.33
2022-08-31T03:50:43.323Z,53.41
2022-08-31T03:53:20.393Z,53.19
2022-08-31T03:55:50.984Z,52.97
2022-08-31T03:58:18.279Z,53.07
2022-08-31T04:00:45.957Z,52.96
2022-08-31T04:03:31.317Z,53.05
2022-08-31T04:06:30.799Z,53.53
2022-08-31T04:09:24.175Z,53.24
2022-08-31T04:12:11.483Z,53.24
2022-08-31T04:15:02.700Z,53.93
2022-08-31T04:17:55.832Z,54.01
2022-08-31T04:20:43.353Z,53.84
2022-08-31T04:23:10.445Z,53.56
2022-08-31T04:25:43.374Z,53.40
2022-08-31T04:28:11.653Z,53.96
2022-08-31T04:30:42.090Z,54.11
2022-08-31T04:33:11.319Z,54.36
2022-08-31T04:35:42.691Z,54.62
2022-08-31T04:38:11.241Z,54.37
2022-08-31T04:40:42.595Z,54.79
2022-08-31T04:43:10.725Z,54.64
2022-08-31T04:45:44.616Z,54.15
2022-08-31T04:48:13.432Z,53.71
2022-08-31T04:50:42.874Z,53.86
2022-08-31T04:53:10.413Z,54.12
2022-08-31T04:55:42.251Z,54.40
2022-08-31T04:58:13.258Z,54.55
2022-08-31T05:00:43.170Z,54.52
2022-08-31T05:03:28.846Z,54.31
2022-08-31T05:05:57.166Z,54.42
2022-08-31T05:08:24.375Z,54.75
2022-08-31T05:10:51.635Z,54.49
2022-08-31T05:13:20.286Z,54.49
2022-08-31T05:15:50.618Z,54.56
2022-08-31T05:18:22.033Z,54.52
2022-08-31T05:20:55.414Z,54.01
2022-08-31T05:23:22.525Z,54.46
2022-08-31T05:25:50.974Z,54.50
2022-08-31T05:28:23.826Z,54.41
2022-08-31T05:30:51.176Z,53.74
2022-08-31T05:33:42.553Z,53.79
2022-08-31T05:36:11.053Z,53.87
2022-08-31T05:38:39.894Z,54.36
2022-08-31T05:41:10.218Z,54.78
2022-08-31T05:43:38.715Z,55.41
2022-08-31T05:46:11.802Z,56.01
2022-08-31T05:48:39.513Z,55.24
2022-08-31T05:51:14.672Z,55.03
2022-08-31T05:53:43.270Z,54.77
2022-08-31T05:56:15.112Z,54.42
2022-08-31T05:58:44.407Z,55.29
2022-08-31T06:01:15.234Z,55.40
2022-08-31T06:04:06.942Z,56.21
2022-08-31T06:06:34.453Z,56.09
2022-08-31T06:09:01.473Z,56.13
2022-08-31T06:11:31.401Z,56.67
2022-08-31T06:14:00.472Z,55.58
2022-08-31T06:16:30.418Z,54.93
2022-08-31T06:18:58.574Z,54.58
2022-08-31T06:21:32.095Z,54.14
2022-08-31T06:24:00.345Z,53.32
2022-08-31T06:26:31.014Z,53.20
2022-08-31T06:29:01.862Z,52.28
2022-08-31T06:31:35.440Z,52.00
2022-08-31T06:34:04.533Z,51.16
2022-08-31T06:36:51.734Z,51.03
2022-08-31T06:39:54.082Z,51.06
2022-08-31T06:42:50.836Z,51.35
2022-08-31T06:45:49.138Z,51.53
2022-08-31T06:48:35.837Z,51.89
2022-08-31T06:51:04.013Z,52.36
2022-08-31T06:53:31.153Z,51.90
2022-08-31T06:56:20.178Z,50.86
2022-08-31T06:59:27.743Z,51.34
2022-08-31T07:02:13.224Z,51.31
2022-08-31T07:04:40.455Z,51.28
2022-08-31T07:07:11.497Z,50.78
2022-08-31T07:09:41.374Z,50.98
2022-08-31T07:12:09.262Z,50.74
2022-08-31T07:14:36.583Z,50.45
2022-08-31T07:17:04.757Z,50.11
2022-08-31T07:19:33.253Z,50.12
2022-08-31T07:22:06.451Z,50.21
2022-08-31T07:24:35.491Z,49.46
2022-08-31T07:27:10.261Z,49.61
2022-08-31T07:29:49.564Z,50.35
2022-08-31T07:32:18.152Z,50.03
2022-08-31T07:34:56.286Z,48.97
2022-08-31T07:38:07.693Z,48.76
2022-08-31T07:40:54.690Z,48.77
2022-08-31T07:43:24.212Z,49.17
2022-08-31T07:45:51.743Z,49.62
2022-08-31T07:48:24.304Z,49.55
2022-08-31T07:51:15.027Z,48.73
2022-08-31T07:54:12.354Z,48.16
2022-08-31T07:57:03.481Z,46.97
2022-08-31T07:59:33.312Z,46.88
2022-08-31T08:02:04.986Z,47.14
2022-08-31T08:04:32.712Z,46.53
2022-08-31T08:07:18.553Z,46.24
2022-08-31T08:10:14.531Z,45.85
2022-08-31T08:12:48.614Z,45.64
2022-08-31T08:15:38.800Z,45.21
2022-08-31T08:18:29.443Z,46.09
2022-08-31T08:21:00.412Z,45.15
2022-08-31T08:23:28.471Z,43.99
2022-08-31T08:26:21.580Z,43.81
2022-08-31T08:29:09.353Z,44.05
2022-08-31T08:31:46.476Z,43.38
2022-08-31T08:34:13.794Z,43.36
2022-08-31T08:36:41.072Z,43.44
2022-08-31T08:39:13.116Z,43.27
2022-08-31T08:41:48.103Z,43.10
2022-08-31T08:44:18.302Z,44.25
2022-08-31T08:46:53.879Z,44.56
2022-08-31T08:49:55.179Z,43.82
2022-08-31T08:52:29.293Z,43.77
2022-08-31T08:55:02.095Z,44.02
2022-08-31T08:57:39.622Z,44.04
2022-08-31T09:00:25.194Z,43.95
2022-08-31T09:03:31.074Z,44.04
2022-08-31T09:06:45.421Z,43.97
2022-08-31T09:09:32.845Z,43.62
2022-08-31T09:12:11.397Z,43.21
2022-08-31T09:15:16.699Z,43.33
2022-08-31T09:17:57.916Z,43.16
2022-08-31T09:20:28.416Z,43.59
2022-08-31T09:22:57.465Z,43.92
2022-08-31T09:25:52.325Z,44.00
2022-08-31T09:28:38.893Z,43.46
2022-08-31T09:31:06.289Z,43.05
2022-08-31T09:33:44.781Z,42.12
2022-08-31T09:36:22.801Z,42.33
2022-08-31T09:38:50.560Z,41.50
2022-08-31T09:41:29.664Z,41.84
2022-08-31T09:44:22.691Z,41.39
2022-08-31T09:46:53.652Z,40.50
2022-08-31T09:49:25.416Z,41.30
2022-08-31T09:51:52.925Z,41.06
2022-08-31T09:54:46.611Z,40.47
2022-08-31T09:57:14.455Z,39.70
2022-08-31T09:59:48.183Z,39.65
2022-08-31T10:02:22.353Z,39.25
2022-08-31T10:05:06.815Z,38.74
2022-08-31T10:07:45.683Z,39.02
2022-08-31T10:10:32.993Z,38.32
2022-08-31T10:13:10.498Z,37.38
2022-08-31T10:15:42.263Z,37.20
2022-08-31T10:18:50.946Z,37.73
2022-08-31T10:21:26.704Z,36.30
2022-08-31T10:24:20.918Z,35.39
2022-08-31T10:26:57.255Z,35.28
2022-08-31T10:29:46.366Z,34.73
2022-08-31T10:32:27.994Z,34.62
2022-08-31T10:35:07.371Z,33.87
2022-08-31T10:38:08.519Z,33.44
2022-08-31T10:40:47.569Z,33.91
2022-08-31T10:43:32.050Z,32.36
2022-08-31T10:45:59.916Z,32.99
2022-08-31T10:48:27.615Z,33.81
2022-08-31T10:51:18.371Z,33.57
2022-08-31T10:53:45.381Z,32.47
2022-08-31T10:56:41.630Z,31.95
2022-08-31T10:59:41.972Z,32.43
2022-08-31T11:13:39.973Z,31.57
2022-08-31T11:16:27.190Z,32.10
2022-08-31T11:19:10.183Z,31.89
2022-08-31T11:21:51.213Z,31.47
2022-08-31T11:24:37.619Z,32.35
2022-08-31T11:27:17.524Z,31.62
2022-08-31T11:29:57.683Z,32.43
2022-08-31T11:32:46.024Z,31.83
2022-08-31T11:35:15.718Z,30.93
2022-08-31T11:37:52.532Z,30.52
2022-08-31T11:40:41.873Z,31.34
2022-08-31T11:43:36.435Z,31.02
2022-08-31T11:46:27.238Z,31.54
2022-08-31T11:48:55.329Z,32.36
2022-08-31T11:51:45.736Z,32.85
2022-08-31T11:54:42.274Z,32.04
2022-08-31T11:57:15.732Z,31.80
2022-08-31T11:59:46.293Z,31.57
2022-08-31T12:02:26.173Z,31.75
2022-08-31T12:04:53.698Z,32.54
2022-08-31T12:07:34.746Z,32.28
2022-08-31T12:10:55.814Z,34.25
2022-08-31T12:13:35.494Z,33.96
2022-08-31T12:16:04.388Z,34.35
2022-08-31T12:18:46.854Z,33.72
2022-08-31T12:21:39.034Z,34.71
2022-08-31T12:24:28.573Z,33.93
2022-08-31T12:27:18.892Z,33.87
2022-08-31T12:29:46.703Z,33.93
2022-08-31T12:32:27.252Z,34.62
2022-08-31T12:35:18.494Z,35.52
2022-08-31T12:37:45.932Z,36.05
2022-08-31T12:40:22.516Z,35.58
2022-08-31T12:42:57.625Z,35.73
2022-08-31T12:45:51.018Z,35.64
2022-08-31T12:48:30.324Z,35.16
2022-08-31T12:51:15.177Z,35.79
2022-08-31T12:53:47.879Z,36.70
2022-08-31T12:56:30.396Z,36.77
2022-08-31T12:59:06.497Z,37.00
2022-08-31T13:01:42.299Z,37.03
2022-08-31T13:04:10.093Z,37.10
2022-08-31T13:06:40.851Z,36.59
2022-08-31T13:09:08.204Z,36.79
2022-08-31T13:11:44.014Z,37.17
2022-08-31T13:14:15.740Z,37.23
2022-08-31T13:16:49.759Z,37.15
2022-08-31T13:19:26.857Z,37.89
2022-08-31T13:22:09.342Z,38.00
2022-08-31T13:24:41.505Z,38.53
2022-08-31T13:27:26.434Z,38.17
2022-08-31T13:29:57.164Z,38.17
2022-08-31T13:32:33.361Z,38.25
2022-08-31T13:35:04.495Z,38.69
2022-08-31T13:37:45.378Z,38.21
2022-08-31T13:40:17.201Z,38.68
2022-08-31T13:42:55.540Z,38.24
2022-08-31T13:45:31.725Z,37.74
2022-08-31T13:48:03.864Z,38.22
2022-08-31T13:50:35.881Z,39.23
2022-08-31T13:55:52.640Z,39.46
2022-08-31T13:58:30.516Z,39.58
2022-08-31T14:01:19.085Z,39.48
2022-08-31T14:03:58.321Z,39.73
2022-08-31T14:06:30.156Z,40.01
2022-08-31T14:09:08.214Z,39.79
2022-08-31T14:11:35.882Z,39.15
2022-08-31T14:14:10.073Z,39.50
2022-08-31T14:16:43.824Z,39.73
2022-08-31T14:19:33.706Z,39.54
2022-08-31T14:22:16.675Z,40.28
2022-08-31T14:24:44.293Z,40.63
2022-08-31T14:27:13.697Z,40.79
2022-08-31T14:29:42.243Z,41.08
2022-08-31T14:32:09.223Z,41.53
2022-08-31T14:34:41.256Z,41.73
2022-08-31T14:37:11.594Z,42.41
2022-08-31T14:39:46.248Z,42.41
2022-08-31T14:42:30.184Z,43.44
2022-08-31T14:45:07.893Z,43.26
2022-08-31T14:47:42.800Z,43.57
2022-08-31T14:50:23.714Z,43.77
2022-08-31T14:52:58.599Z,44.49
2022-08-31T14:55:27.643Z,46.05
2022-08-31T14:58:05.304Z,47.38
2022-08-31T15:00:35.616Z,48.13
2022-08-31T15:03:03.201Z,48.49
2022-08-31T15:05:30.314Z,48.95
2022-08-31T15:07:57.423Z,49.74
2022-08-31T15:10:26.133Z,50.10
2022-08-31T15:12:53.851Z,50.42
2022-08-31T15:15:21.244Z,50.69
2022-08-31T15:17:51.739Z,51.00
2022-08-31T15:20:21.693Z,51.42
2022-08-31T15:22:49.175Z,52.33
2022-08-31T15:25:18.924Z,52.30
2022-08-31T15:27:46.802Z,52.15
2022-08-31T15:30:16.102Z,52.30
2022-08-31T15:32:45.477Z,51.47
2022-08-31T15:35:18.040Z,51.10
2022-08-31T15:37:56.690Z,51.36
2022-08-31T15:40:25.606Z,52.07
2022-08-31T15:42:56.306Z,51.57
2022-08-31T15:45:25.506Z,50.50
2022-08-31T15:48:11.560Z,52.57
2022-08-31T15:50:48.285Z,54.46
2022-08-31T15:53:16.893Z,54.98
2022-08-31T15:55:45.091Z,54.70
2022-08-31T15:58:12.843Z,53.37
2022-08-31T16:00:42.380Z,54.15
2022-08-31T16:03:09.627Z,54.35
2022-08-31T16:05:39.580Z,54.68
2022-08-31T16:08:13.953Z,54.75
2022-08-31T16:10:46.465Z,55.30
2022-08-31T16:13:16.031Z,53.67
2022-08-31T16:15:51.283Z,53.51
2022-08-31T16:18:20.509Z,54.83
2022-08-31T16:20:50.265Z,54.54
2022-08-31T16:23:18.253Z,54.59
2022-08-31T16:25:48.851Z,55.43
2022-08-31T16:28:22.092Z,55.60
2022-08-31T16:30:52.035Z,55.03
2022-08-31T16:33:21.066Z,55.46
2022-08-31T16:35:48.142Z,55.57
2022-08-31T16:38:15.759Z,55.44
2022-08-31T16:40:43.632Z,55.18
2022-08-31T16:43:11.533Z,55.94
2022-08-31T16:45:40.330Z,56.14
2022-08-31T16:48:29.641Z,56.31
2022-08-31T16:50:58.462Z,55.48
2022-08-31T16:53:26.050Z,56.18
2022-08-31T16:55:53.508Z,55.65
2022-08-31T16:58:47.551Z,55.78
2022-08-31T17:01:15.078Z,56.41
2022-08-31T17:03:46.622Z,56.20
2022-08-31T17:06:13.993Z,55.95
2022-08-31T17:08:47.407Z,56.11
2022-08-31T17:11:27.489Z,56.49
2022-08-31T17:13:58.505Z,56.45
2022-08-31T17:16:31.669Z,56.55
2022-08-31T17:18:59.272Z,56.52
2022-08-31T17:21:29.378Z,56.78
2022-08-31T17:23:59.099Z,56.81
2022-08-31T17:26:31.258Z,56.38
2022-08-31T17:29:03.338Z,55.80
2022-08-31T17:31:33.290Z,56.75
2022-08-31T17:34:02.149Z,56.94
2022-08-31T17:36:37.418Z,57.15
2022-08-31T17:39:06.259Z,57.00
2022-08-31T17:41:34.540Z,56.79
2022-08-31T17:44:02.098Z,56.75
2022-08-31T17:46:29.543Z,56.80
2022-08-31T17:48:57.163Z,56.49
2022-08-31T17:51:31.699Z,56.61
2022-08-31T17:54:02.589Z,56.77
2022-08-31T17:56:48.350Z,57.07
2022-08-31T17:59:23.948Z,57.33
2022-08-31T18:01:55.030Z,57.31
2022-08-31T18:04:25.140Z,57.67
2022-08-31T18:06:55.290Z,58.17
2022-08-31T18:09:25.829Z,58.29
2022-08-31T18:11:53.725Z,57.69
2022-08-31T18:14:24.540Z,58.09
2022-08-31T18:16:53.638Z,58.09
2022-08-31T18:19:27.663Z,57.68
2022-08-31T18:21:56.790Z,58.21
2022-08-31T18:24:23.879Z,58.37
2022-08-31T18:26:52.187Z,58.17
2022-08-31T18:29:24.929Z,58.28
2022-08-31T18:31:54.379Z,57.82
2022-08-31T18:34:23.902Z,58.34
2022-08-31T18:36:53.652Z,58.24
2022-08-31T18:39:47.770Z,58.77
2022-08-31T18:42:28.572Z,58.65
2022-08-31T18:45:14.088Z,57.65
2022-08-31T18:47:41.690Z,57.92
2022-08-31T18:50:09.139Z,58.17
2022-08-31T18:52:42.356Z,58.00
2022-08-31T18:55:15.920Z,60.23
2022-08-31T18:57:48.757Z,59.82
2022-08-31T19:00:17.970Z,60.20
2022-08-31T19:02:45.398Z,60.67
2022-08-31T19:05:14.205Z,60.80
2022-08-31T19:07:42.211Z,60.20
2022-08-31T19:10:13.232Z,61.01
2022-08-31T19:12:42.818Z,61.77
2022-08-31T19:15:12.511Z,61.41
2022-08-31T19:17:41.924Z,61.51
2022-08-31T19:20:10.477Z,61.74
2022-08-31T19:22:38.361Z,61.64
2022-08-31T19:25:09.227Z,61.41
2022-08-31T19:27:38.139Z,61.07
2022-08-31T19:30:08.060Z,60.84
2022-08-31T19:32:36.980Z,61.16
2022-08-31T19:35:04.771Z,61.01
2022-08-31T19:37:31.750Z,61.55
2022-08-31T19:39:58.815Z,62.00
2022-08-31T19:45:40.833Z,61.35
2022-08-31T19:48:05.829Z,62.62
2022-08-31T19:50:41.357Z,61.86
2022-08-31T19:53:12.867Z,62.74
2022-08-31T19:55:50.332Z,63.45
2022-08-31T19:58:22.283Z,63.45
2022-08-31T20:00:50.171Z,64.12
2022-08-31T20:03:19.643Z,63.15
2022-08-31T20:05:47.501Z,62.83
2022-08-31T20:08:14.489Z,63.63
2022-08-31T20:10:46.570Z,64.02
2022-08-31T20:13:13.925Z,63.85
2022-08-31T20:15:44.058Z,63.86
2022-08-31T20:18:12.903Z,64.84
2022-08-31T20:20:45.901Z,65.00
2022-08-31T20:23:17.062Z,65.39
2022-08-31T20:25:46.279Z,65.26
2022-08-31T20:28:14.319Z,65.80
2022-08-31T20:30:43.550Z,65.75
2022-08-31T20:33:12.094Z,65.83
2022-08-31T20:35:47.934Z,65.68
2022-08-31T20:38:17.342Z,65.30
2022-08-31T20:40:47.366Z,65.74
2022-08-31T20:43:15.139Z,65.41
2022-08-31T20:45:42.365Z,66.32
2022-08-31T20:48:28.781Z,65.11
2022-08-31T20:50:56.591Z,64.87
2022-08-31T20:53:42.835Z,65.13
2022-08-31T20:56:17.452Z,65.45
2022-08-31T20:58:45.861Z,64.71
2022-08-31T21:01:14.391Z,64.59
2022-08-31T21:03:41.755Z,63.95
2022-08-31T21:06:11.820Z,65.18
2022-08-31T21:08:42.803Z,64.60
2022-08-31T21:11:11.829Z,65.17
2022-08-31T21:13:38.841Z,65.43
2022-08-31T21:16:05.962Z,65.74
2022-08-31T21:18:34.830Z,65.32
2022-08-31T21:21:08.441Z,65.19
2022-08-31T21:23:37.639Z,65.02
2022-08-31T21:26:08.824Z,64.54
2022-08-31T21:28:39.580Z,64.53
2022-08-31T21:31:16.431Z,65.02
2022-08-31T21:33:58.129Z,65.84
2022-08-31T21:36:26.863Z,65.54
2022-08-31T21:38:56.483Z,65.51
2022-08-31T21:41:26.882Z,65.58
2022-08-31T21:43:55.569Z,66.04
2022-08-31T21:46:25.627Z,65.73
2022-08-31T21:48:55.261Z,65.57
2022-08-31T21:51:28.310Z,65.20
2022-08-31T21:54:15.743Z,65.08
2022-08-31T21:56:51.910Z,64.92
2022-08-31T21:59:22.280Z,65.00
2022-08-31T22:01:51.235Z,65.06
2022-08-31T22:04:20.779Z,65.00
2022-08-31T22:06:49.827Z,65.54
2022-08-31T22:09:20.083Z,65.87
2022-08-31T22:11:50.939Z,66.07
2022-08-31T22:14:20.545Z,66.44
2022-08-31T22:16:48.280Z,66.13
2022-08-31T22:19:21.119Z,66.38
2022-08-31T22:21:51.477Z,65.42
2022-08-31T22:24:26.876Z,67.19
2022-08-31T22:26:55.142Z,66.60
2022-08-31T22:29:24.600Z,67.19
2022-08-31T22:31:53.844Z,67.68
2022-08-31T22:34:21.660Z,67.67
2022-08-31T22:36:52.198Z,67.49
2022-08-31T22:39:22.380Z,67.68
2022-08-31T22:41:49.667Z,67.62
2022-08-31T22:44:19.900Z,67.51
2022-08-31T22:46:47.791Z,67.37
2022-08-31T22:49:15.381Z,67.52
2022-08-31T22:51:47.794Z,67.24
2022-08-31T22:54:17.643Z,67.48
2022-08-31T22:56:45.560Z,67.24
2022-08-31T22:59:15.551Z,67.37
2022-08-31T23:01:47.764Z,67.68
2022-08-31T23:04:20.401Z,67.63
2022-08-31T23:06:50.530Z,67.70
2022-08-31T23:09:22.206Z,67.25
2022-08-31T23:11:53.523Z,67.94
2022-08-31T23:14:21.382Z,67.70
2022-08-31T23:16:55.380Z,67.40
2022-08-31T23:19:26.589Z,67.70
2022-08-31T23:21:57.642Z,67.57
2022-08-31T23:24:38.608Z,67.81
2022-08-31T23:27:09.520Z,67.57
2022-08-31T23:29:40.627Z,68.16
2022-08-31T23:32:13.619Z,67.62
2022-08-31T23:34:41.950Z,68.07
2022-08-31T23:37:10.983Z,67.96
2022-08-31T23:39:41.040Z,67.97
2022-08-31T23:42:12.460Z,67.64
2022-08-31T23:44:43.696Z,67.39
2022-08-31T23:47:17.387Z,68.46
2022-08-31T23:49:46.162Z,68.30
2022-08-31T23:52:18.856Z,67.84
2022-08-31T23:54:49.902Z,68.19
2022-08-31T23:57:32.246Z,67.92
